sensor_id;sensor_type;location;lat;lon;timestamp;P1;durP1;ratioP1;P2;durP2;ratioP2
59424;SDS011;45231;44.826;20.312;2022-12-13T00:00:56;119.57;;;58.90;;
59424;SDS011;45231;44.826;20.312;2022-12-13T00:03:22;132.77;;;64.80;;
59424;SDS011;45231;44.826;20.312;2022-12-13T00:05:55;127.65;;;66.03;;
59424;SDS011;45231;44.826;20.312;2022-12-13T00:08:21;122.22;;;62.22;;
59424;SDS011;45231;44.826;20.312;2022-12-13T00:10:57;119.57;;;60.08;;
59424;SDS011;45231;44.826;20.312;2022-12-13T00:13:27;118.40;;;60.65;;
59424;SDS011;45231;44.826;20.312;2022-12-13T00:16:00;111.90;;;56.80;;
59424;SDS011;45231;44.826;20.312;2022-12-13T00:18:27;107.80;;;54.85;;
59424;SDS011;45231;44.826;20.312;2022-12-13T00:20:54;121.22;;;59.60;;
59424;SDS011;45231;44.826;20.312;2022-12-13T00:23:23;126.15;;;63.65;;
59424;SDS011;45231;44.826;20.312;2022-12-13T00:25:52;124.72;;;62.78;;
59424;SDS011;45231;44.826;20.312;2022-12-13T00:28:19;124.28;;;60.05;;
59424;SDS011;45231;44.826;20.312;2022-12-13T00:31:05;107.20;;;57.75;;
59424;SDS011;45231;44.826;20.312;2022-12-13T00:33:44;111.57;;;56.75;;
59424;SDS011;45231;44.826;20.312;2022-12-13T00:38:49;117.63;;;59.60;;
59424;SDS011;45231;44.826;20.312;2022-12-13T00:41:25;123.90;;;61.25;;
59424;SDS011;45231;44.826;20.312;2022-12-13T00:43:55;121.65;;;61.13;;
59424;SDS011;45231;44.826;20.312;2022-12-13T00:46:40;118.82;;;58.92;;
59424;SDS011;45231;44.826;20.312;2022-12-13T00:49:08;105.13;;;56.60;;
59424;SDS011;45231;44.826;20.312;2022-12-13T00:51:35;110.57;;;57.83;;
59424;SDS011;45231;44.826;20.312;2022-12-13T00:57:04;103.47;;;50.40;;
59424;SDS011;45231;44.826;20.312;2022-12-13T00:59:31;94.30;;;49.47;;
59424;SDS011;45231;44.826;20.312;2022-12-13T01:01:57;92.33;;;48.53;;
59424;SDS011;45231;44.826;20.312;2022-12-13T01:04:23;91.82;;;47.35;;
59424;SDS011;45231;44.826;20.312;2022-12-13T01:06:50;94.93;;;49.40;;
59424;SDS011;45231;44.826;20.312;2022-12-13T01:09:18;76.65;;;40.47;;
59424;SDS011;45231;44.826;20.312;2022-12-13T01:11:44;93.25;;;49.33;;
59424;SDS011;45231;44.826;20.312;2022-12-13T01:14:14;96.55;;;50.17;;
59424;SDS011;45231;44.826;20.312;2022-12-13T01:16:41;92.18;;;48.70;;
59424;SDS011;45231;44.826;20.312;2022-12-13T01:19:07;97.78;;;49.35;;
59424;SDS011;45231;44.826;20.312;2022-12-13T01:21:34;95.20;;;48.45;;
59424;SDS011;45231;44.826;20.312;2022-12-13T01:24:04;96.68;;;50.38;;
59424;SDS011;45231;44.826;20.312;2022-12-13T01:26:33;91.68;;;48.10;;
59424;SDS011;45231;44.826;20.312;2022-12-13T01:28:59;91.88;;;49.58;;
59424;SDS011;45231;44.826;20.312;2022-12-13T01:31:26;90.80;;;48.08;;
59424;SDS011;45231;44.826;20.312;2022-12-13T01:33:52;92.93;;;47.45;;
59424;SDS011;45231;44.826;20.312;2022-12-13T01:36:25;86.03;;;46.55;;
59424;SDS011;45231;44.826;20.312;2022-12-13T01:38:55;95.45;;;46.75;;
59424;SDS011;45231;44.826;20.312;2022-12-13T01:41:29;92.45;;;49.15;;
59424;SDS011;45231;44.826;20.312;2022-12-13T01:44:02;78.97;;;40.15;;
59424;SDS011;45231;44.826;20.312;2022-12-13T01:46:30;113.68;;;54.88;;
59424;SDS011;45231;44.826;20.312;2022-12-13T01:48:58;114.72;;;57.05;;
59424;SDS011;45231;44.826;20.312;2022-12-13T01:51:31;112.28;;;56.67;;
59424;SDS011;45231;44.826;20.312;2022-12-13T01:53:59;114.70;;;57.47;;
59424;SDS011;45231;44.826;20.312;2022-12-13T01:56:43;113.50;;;55.67;;
59424;SDS011;45231;44.826;20.312;2022-12-13T01:59:10;108.10;;;54.95;;
59424;SDS011;45231;44.826;20.312;2022-12-13T02:01:37;108.38;;;56.70;;
59424;SDS011;45231;44.826;20.312;2022-12-13T02:04:07;114.63;;;56.80;;
59424;SDS011;45231;44.826;20.312;2022-12-13T02:06:36;113.70;;;54.92;;
59424;SDS011;45231;44.826;20.312;2022-12-13T02:09:04;99.90;;;48.80;;
59424;SDS011;45231;44.826;20.312;2022-12-13T02:11:31;99.40;;;51.22;;
59424;SDS011;45231;44.826;20.312;2022-12-13T02:13:58;112.88;;;54.97;;
59424;SDS011;45231;44.826;20.312;2022-12-13T02:27:06;116.97;;;56.35;;
59424;SDS011;45231;44.826;20.312;2022-12-13T02:32:07;118.33;;;59.13;;
59424;SDS011;45231;44.826;20.312;2022-12-13T02:34:47;114.55;;;56.08;;
59424;SDS011;45231;44.826;20.312;2022-12-13T02:37:27;122.63;;;59.28;;
59424;SDS011;45231;44.826;20.312;2022-12-13T02:40:08;116.05;;;54.05;;
59424;SDS011;45231;44.826;20.312;2022-12-13T02:42:42;110.30;;;56.35;;
59424;SDS011;45231;44.826;20.312;2022-12-13T02:45:17;119.22;;;62.45;;
59424;SDS011;45231;44.826;20.312;2022-12-13T02:47:45;120.20;;;57.60;;
59424;SDS011;45231;44.826;20.312;2022-12-13T02:50:12;114.63;;;57.90;;
59424;SDS011;45231;44.826;20.312;2022-12-13T02:52:40;107.55;;;55.10;;
59424;SDS011;45231;44.826;20.312;2022-12-13T02:55:08;112.07;;;57.67;;
59424;SDS011;45231;44.826;20.312;2022-12-13T02:57:38;109.03;;;55.95;;
59424;SDS011;45231;44.826;20.312;2022-12-13T03:00:06;121.80;;;60.75;;
59424;SDS011;45231;44.826;20.312;2022-12-13T03:05:12;121.82;;;61.22;;
59424;SDS011;45231;44.826;20.312;2022-12-13T03:10:51;125.95;;;62.47;;
59424;SDS011;45231;44.826;20.312;2022-12-13T03:13:25;116.00;;;60.08;;
59424;SDS011;45231;44.826;20.312;2022-12-13T03:18:51;119.63;;;59.35;;
59424;SDS011;45231;44.826;20.312;2022-12-13T03:21:17;122.53;;;61.15;;
59424;SDS011;45231;44.826;20.312;2022-12-13T03:23:47;121.70;;;62.50;;
59424;SDS011;45231;44.826;20.312;2022-12-13T03:26:14;118.97;;;61.92;;
59424;SDS011;45231;44.826;20.312;2022-12-13T03:28:42;121.45;;;59.88;;
59424;SDS011;45231;44.826;20.312;2022-12-13T03:31:08;118.88;;;61.92;;
59424;SDS011;45231;44.826;20.312;2022-12-13T03:33:37;117.40;;;61.53;;
59424;SDS011;45231;44.826;20.312;2022-12-13T03:36:04;117.38;;;61.83;;
59424;SDS011;45231;44.826;20.312;2022-12-13T03:38:51;113.75;;;60.78;;
59424;SDS011;45231;44.826;20.312;2022-12-13T03:41:21;121.50;;;59.55;;
59424;SDS011;45231;44.826;20.312;2022-12-13T03:43:55;117.15;;;58.08;;
59424;SDS011;45231;44.826;20.312;2022-12-13T03:46:22;118.57;;;61.20;;
59424;SDS011;45231;44.826;20.312;2022-12-13T03:48:48;115.78;;;60.60;;
59424;SDS011;45231;44.826;20.312;2022-12-13T03:51:14;117.15;;;61.03;;
59424;SDS011;45231;44.826;20.312;2022-12-13T03:53:41;128.60;;;63.97;;
59424;SDS011;45231;44.826;20.312;2022-12-13T03:56:08;124.18;;;61.60;;
59424;SDS011;45231;44.826;20.312;2022-12-13T03:58:34;91.43;;;47.47;;
59424;SDS011;45231;44.826;20.312;2022-12-13T04:01:07;114.13;;;59.17;;
59424;SDS011;45231;44.826;20.312;2022-12-13T04:03:34;123.78;;;61.63;;
59424;SDS011;45231;44.826;20.312;2022-12-13T04:08:26;120.18;;;60.10;;
59424;SDS011;45231;44.826;20.312;2022-12-13T04:10:53;121.95;;;61.78;;
59424;SDS011;45231;44.826;20.312;2022-12-13T04:13:19;127.35;;;64.82;;
59424;SDS011;45231;44.826;20.312;2022-12-13T04:15:57;128.65;;;63.53;;
59424;SDS011;45231;44.826;20.312;2022-12-13T04:18:24;132.90;;;64.70;;
59424;SDS011;45231;44.826;20.312;2022-12-13T04:20:50;124.00;;;62.15;;
59424;SDS011;45231;44.826;20.312;2022-12-13T04:23:35;129.23;;;63.38;;
59424;SDS011;45231;44.826;20.312;2022-12-13T04:26:04;130.97;;;65.83;;
59424;SDS011;45231;44.826;20.312;2022-12-13T04:28:30;123.00;;;63.85;;
59424;SDS011;45231;44.826;20.312;2022-12-13T04:30:57;133.37;;;66.97;;
59424;SDS011;45231;44.826;20.312;2022-12-13T04:33:23;131.52;;;65.18;;
59424;SDS011;45231;44.826;20.312;2022-12-13T04:35:50;128.82;;;65.97;;
59424;SDS011;45231;44.826;20.312;2022-12-13T04:38:16;136.60;;;65.32;;
59424;SDS011;45231;44.826;20.312;2022-12-13T04:40:43;107.93;;;56.25;;
59424;SDS011;45231;44.826;20.312;2022-12-13T04:43:09;110.80;;;50.70;;
59424;SDS011;45231;44.826;20.312;2022-12-13T04:45:35;136.48;;;62.58;;
59424;SDS011;45231;44.826;20.312;2022-12-13T04:48:02;137.35;;;65.78;;
59424;SDS011;45231;44.826;20.312;2022-12-13T04:50:28;126.95;;;60.13;;
59424;SDS011;45231;44.826;20.312;2022-12-13T04:53:01;123.60;;;62.40;;
59424;SDS011;45231;44.826;20.312;2022-12-13T04:55:27;130.07;;;63.60;;
59424;SDS011;45231;44.826;20.312;2022-12-13T04:57:53;128.00;;;60.90;;
59424;SDS011;45231;44.826;20.312;2022-12-13T05:00:23;123.32;;;60.38;;
59424;SDS011;45231;44.826;20.312;2022-12-13T05:02:49;131.13;;;61.40;;
59424;SDS011;45231;44.826;20.312;2022-12-13T05:05:15;95.68;;;45.80;;
59424;SDS011;45231;44.826;20.312;2022-12-13T05:07:41;127.82;;;60.60;;
59424;SDS011;45231;44.826;20.312;2022-12-13T05:10:08;124.40;;;59.88;;
59424;SDS011;45231;44.826;20.312;2022-12-13T05:15:01;137.98;;;62.83;;
59424;SDS011;45231;44.826;20.312;2022-12-13T05:17:49;137.40;;;67.07;;
59424;SDS011;45231;44.826;20.312;2022-12-13T05:20:17;124.45;;;59.25;;
59424;SDS011;45231;44.826;20.312;2022-12-13T05:22:43;91.32;;;44.75;;
59424;SDS011;45231;44.826;20.312;2022-12-13T05:25:10;119.53;;;55.15;;
59424;SDS011;45231;44.826;20.312;2022-12-13T05:27:39;121.15;;;60.85;;
59424;SDS011;45231;44.826;20.312;2022-12-13T05:30:08;123.05;;;61.47;;
59424;SDS011;45231;44.826;20.312;2022-12-13T05:32:55;124.50;;;60.78;;
59424;SDS011;45231;44.826;20.312;2022-12-13T05:35:21;127.97;;;64.93;;
59424;SDS011;45231;44.826;20.312;2022-12-13T05:37:47;121.77;;;63.07;;
59424;SDS011;45231;44.826;20.312;2022-12-13T05:40:16;126.37;;;62.37;;
59424;SDS011;45231;44.826;20.312;2022-12-13T05:43:11;117.43;;;61.70;;
59424;SDS011;45231;44.826;20.312;2022-12-13T05:45:41;112.38;;;57.47;;
59424;SDS011;45231;44.826;20.312;2022-12-13T05:48:07;126.30;;;61.10;;
59424;SDS011;45231;44.826;20.312;2022-12-13T05:50:37;131.38;;;65.63;;
59424;SDS011;45231;44.826;20.312;2022-12-13T05:53:03;114.72;;;55.88;;
59424;SDS011;45231;44.826;20.312;2022-12-13T05:55:49;133.63;;;66.30;;
59424;SDS011;45231;44.826;20.312;2022-12-13T05:58:15;132.43;;;64.78;;
59424;SDS011;45231;44.826;20.312;2022-12-13T06:00:42;108.38;;;52.13;;
59424;SDS011;45231;44.826;20.312;2022-12-13T06:03:08;144.02;;;66.13;;
59424;SDS011;45231;44.826;20.312;2022-12-13T06:05:35;128.20;;;64.18;;
59424;SDS011;45231;44.826;20.312;2022-12-13T06:08:11;149.88;;;70.75;;
59424;SDS011;45231;44.826;20.312;2022-12-13T06:10:58;136.02;;;66.93;;
59424;SDS011;45231;44.826;20.312;2022-12-13T06:15:51;134.68;;;62.30;;
59424;SDS011;45231;44.826;20.312;2022-12-13T06:18:17;131.30;;;65.18;;
59424;SDS011;45231;44.826;20.312;2022-12-13T06:20:44;118.63;;;62.33;;
59424;SDS011;45231;44.826;20.312;2022-12-13T06:23:11;119.25;;;58.08;;
59424;SDS011;45231;44.826;20.312;2022-12-13T06:25:38;129.32;;;63.20;;
59424;SDS011;45231;44.826;20.312;2022-12-13T06:28:07;134.63;;;67.47;;
59424;SDS011;45231;44.826;20.312;2022-12-13T06:30:34;120.40;;;62.53;;
59424;SDS011;45231;44.826;20.312;2022-12-13T06:33:00;131.73;;;65.78;;
59424;SDS011;45231;44.826;20.312;2022-12-13T06:35:29;134.17;;;66.70;;
59424;SDS011;45231;44.826;20.312;2022-12-13T06:38:43;123.97;;;63.25;;
59424;SDS011;45231;44.826;20.312;2022-12-13T06:43:51;115.32;;;61.13;;
59424;SDS011;45231;44.826;20.312;2022-12-13T06:46:23;121.75;;;64.93;;
59424;SDS011;45231;44.826;20.312;2022-12-13T06:48:50;119.32;;;60.65;;
59424;SDS011;45231;44.826;20.312;2022-12-13T06:51:17;108.05;;;56.45;;
59424;SDS011;45231;44.826;20.312;2022-12-13T06:53:43;116.82;;;64.50;;
59424;SDS011;45231;44.826;20.312;2022-12-13T06:56:40;113.07;;;62.55;;
59424;SDS011;45231;44.826;20.312;2022-12-13T06:59:05;111.72;;;61.65;;
59424;SDS011;45231;44.826;20.312;2022-12-13T07:01:31;107.10;;;59.85;;
59424;SDS011;45231;44.826;20.312;2022-12-13T07:04:08;97.40;;;59.20;;
59424;SDS011;45231;44.826;20.312;2022-12-13T07:06:36;88.38;;;53.83;;
59424;SDS011;45231;44.826;20.312;2022-12-13T07:09:03;87.93;;;55.40;;
59424;SDS011;45231;44.826;20.312;2022-12-13T07:11:30;88.68;;;53.22;;
59424;SDS011;45231;44.826;20.312;2022-12-13T07:13:57;97.30;;;59.17;;
59424;SDS011;45231;44.826;20.312;2022-12-13T07:16:23;93.50;;;57.45;;
59424;SDS011;45231;44.826;20.312;2022-12-13T07:18:56;94.50;;;56.57;;
59424;SDS011;45231;44.826;20.312;2022-12-13T07:21:30;109.45;;;65.90;;
59424;SDS011;45231;44.826;20.312;2022-12-13T07:23:56;112.93;;;64.82;;
59424;SDS011;45231;44.826;20.312;2022-12-13T07:26:23;109.47;;;61.33;;
59424;SDS011;45231;44.826;20.312;2022-12-13T07:28:49;96.38;;;59.65;;
59424;SDS011;45231;44.826;20.312;2022-12-13T07:31:15;96.93;;;55.55;;
59424;SDS011;45231;44.826;20.312;2022-12-13T07:33:43;88.85;;;53.72;;
59424;SDS011;45231;44.826;20.312;2022-12-13T07:36:13;92.60;;;55.37;;
59424;SDS011;45231;44.826;20.312;2022-12-13T07:38:39;86.53;;;52.22;;
59424;SDS011;45231;44.826;20.312;2022-12-13T07:41:08;96.47;;;55.00;;
59424;SDS011;45231;44.826;20.312;2022-12-13T07:43:35;107.60;;;62.53;;
59424;SDS011;45231;44.826;20.312;2022-12-13T07:46:02;110.03;;;65.95;;
59424;SDS011;45231;44.826;20.312;2022-12-13T07:48:29;107.80;;;61.95;;
59424;SDS011;45231;44.826;20.312;2022-12-13T07:51:00;110.32;;;63.45;;
59424;SDS011;45231;44.826;20.312;2022-12-13T07:53:26;103.97;;;64.85;;
59424;SDS011;45231;44.826;20.312;2022-12-13T07:55:53;115.63;;;71.18;;
59424;SDS011;45231;44.826;20.312;2022-12-13T07:58:19;107.53;;;67.18;;
59424;SDS011;45231;44.826;20.312;2022-12-13T08:00:45;81.10;;;50.75;;
59424;SDS011;45231;44.826;20.312;2022-12-13T08:03:12;98.68;;;60.90;;
59424;SDS011;45231;44.826;20.312;2022-12-13T08:05:38;97.93;;;59.60;;
59424;SDS011;45231;44.826;20.312;2022-12-13T08:08:06;96.35;;;58.42;;
59424;SDS011;45231;44.826;20.312;2022-12-13T08:10:32;94.30;;;55.45;;
59424;SDS011;45231;44.826;20.312;2022-12-13T08:13:00;87.73;;;54.90;;
59424;SDS011;45231;44.826;20.312;2022-12-13T08:15:27;102.28;;;60.40;;
59424;SDS011;45231;44.826;20.312;2022-12-13T08:17:56;89.13;;;50.90;;
59424;SDS011;45231;44.826;20.312;2022-12-13T08:20:32;103.65;;;60.10;;
59424;SDS011;45231;44.826;20.312;2022-12-13T08:22:58;109.57;;;64.25;;
59424;SDS011;45231;44.826;20.312;2022-12-13T08:25:25;96.82;;;60.45;;
59424;SDS011;45231;44.826;20.312;2022-12-13T08:27:51;95.78;;;58.65;;
59424;SDS011;45231;44.826;20.312;2022-12-13T08:30:18;95.45;;;59.60;;
59424;SDS011;45231;44.826;20.312;2022-12-13T08:32:44;83.85;;;52.53;;
59424;SDS011;45231;44.826;20.312;2022-12-13T08:35:10;77.17;;;54.43;;
59424;SDS011;45231;44.826;20.312;2022-12-13T08:37:36;78.67;;;54.80;;
59424;SDS011;45231;44.826;20.312;2022-12-13T08:40:02;82.35;;;57.60;;
59424;SDS011;45231;44.826;20.312;2022-12-13T08:42:30;71.80;;;54.13;;
59424;SDS011;45231;44.826;20.312;2022-12-13T08:44:56;71.78;;;53.03;;
59424;SDS011;45231;44.826;20.312;2022-12-13T08:47:23;66.53;;;49.15;;
59424;SDS011;45231;44.826;20.312;2022-12-13T08:49:49;67.10;;;50.05;;
59424;SDS011;45231;44.826;20.312;2022-12-13T08:52:16;58.95;;;44.78;;
59424;SDS011;45231;44.826;20.312;2022-12-13T08:54:42;52.20;;;40.78;;
59424;SDS011;45231;44.826;20.312;2022-12-13T08:59:34;46.03;;;37.50;;
59424;SDS011;45231;44.826;20.312;2022-12-13T09:02:00;46.10;;;35.17;;
59424;SDS011;45231;44.826;20.312;2022-12-13T09:04:26;46.78;;;37.40;;
59424;SDS011;45231;44.826;20.312;2022-12-13T09:06:52;42.35;;;33.45;;
59424;SDS011;45231;44.826;20.312;2022-12-13T09:09:18;42.60;;;33.67;;
59424;SDS011;45231;44.826;20.312;2022-12-13T09:11:44;48.88;;;37.65;;
59424;SDS011;45231;44.826;20.312;2022-12-13T09:14:10;42.30;;;32.30;;
59424;SDS011;45231;44.826;20.312;2022-12-13T09:16:36;44.55;;;34.20;;
59424;SDS011;45231;44.826;20.312;2022-12-13T09:19:03;43.03;;;35.20;;
59424;SDS011;45231;44.826;20.312;2022-12-13T09:21:30;47.50;;;35.38;;
59424;SDS011;45231;44.826;20.312;2022-12-13T09:23:56;47.45;;;36.35;;
59424;SDS011;45231;44.826;20.312;2022-12-13T09:26:22;59.38;;;35.80;;
59424;SDS011;45231;44.826;20.312;2022-12-13T09:28:48;48.22;;;34.50;;
59424;SDS011;45231;44.826;20.312;2022-12-13T09:31:18;45.70;;;32.25;;
59424;SDS011;45231;44.826;20.312;2022-12-13T09:33:44;46.80;;;32.83;;
59424;SDS011;45231;44.826;20.312;2022-12-13T09:36:15;45.97;;;30.98;;
59424;SDS011;45231;44.826;20.312;2022-12-13T09:38:41;46.63;;;32.38;;
59424;SDS011;45231;44.826;20.312;2022-12-13T09:43:43;48.58;;;33.40;;
59424;SDS011;45231;44.826;20.312;2022-12-13T09:46:12;46.50;;;33.22;;
59424;SDS011;45231;44.826;20.312;2022-12-13T09:48:43;51.78;;;34.40;;
59424;SDS011;45231;44.826;20.312;2022-12-13T09:51:09;47.43;;;35.37;;
59424;SDS011;45231;44.826;20.312;2022-12-13T09:53:36;50.75;;;33.13;;
59424;SDS011;45231;44.826;20.312;2022-12-13T09:56:02;47.65;;;33.45;;
59424;SDS011;45231;44.826;20.312;2022-12-13T09:58:29;42.30;;;30.10;;
59424;SDS011;45231;44.826;20.312;2022-12-13T10:00:56;46.42;;;30.92;;
59424;SDS011;45231;44.826;20.312;2022-12-13T10:03:22;44.88;;;31.50;;
59424;SDS011;45231;44.826;20.312;2022-12-13T10:05:55;47.15;;;30.80;;
59424;SDS011;45231;44.826;20.312;2022-12-13T10:08:24;44.58;;;31.02;;
59424;SDS011;45231;44.826;20.312;2022-12-13T10:10:52;44.97;;;32.53;;
59424;SDS011;45231;44.826;20.312;2022-12-13T10:13:23;47.78;;;31.77;;
59424;SDS011;45231;44.826;20.312;2022-12-13T10:15:53;48.90;;;34.65;;
59424;SDS011;45231;44.826;20.312;2022-12-13T10:18:38;48.97;;;34.45;;
59424;SDS011;45231;44.826;20.312;2022-12-13T10:21:12;49.80;;;34.25;;
59424;SDS011;45231;44.826;20.312;2022-12-13T10:23:41;50.00;;;36.65;;
59424;SDS011;45231;44.826;20.312;2022-12-13T10:26:08;52.40;;;37.07;;
59424;SDS011;45231;44.826;20.312;2022-12-13T10:28:34;54.83;;;36.88;;
59424;SDS011;45231;44.826;20.312;2022-12-13T10:31:00;58.83;;;37.80;;
59424;SDS011;45231;44.826;20.312;2022-12-13T10:36:03;29.63;;;20.00;;
59424;SDS011;45231;44.826;20.312;2022-12-13T10:38:30;43.58;;;24.05;;
59424;SDS011;45231;44.826;20.312;2022-12-13T10:40:59;31.55;;;22.45;;
59424;SDS011;45231;44.826;20.312;2022-12-13T10:43:25;36.65;;;24.35;;
59424;SDS011;45231;44.826;20.312;2022-12-13T10:48:26;36.72;;;24.75;;
59424;SDS011;45231;44.826;20.312;2022-12-13T10:50:57;38.58;;;26.77;;
59424;SDS011;45231;44.826;20.312;2022-12-13T10:53:28;34.95;;;22.95;;
59424;SDS011;45231;44.826;20.312;2022-12-13T10:55:55;28.83;;;20.85;;
59424;SDS011;45231;44.826;20.312;2022-12-13T10:58:22;31.80;;;20.33;;
59424;SDS011;45231;44.826;20.312;2022-12-13T11:00:48;28.03;;;19.40;;
59424;SDS011;45231;44.826;20.312;2022-12-13T11:03:28;28.23;;;18.07;;
59424;SDS011;45231;44.826;20.312;2022-12-13T11:06:14;28.63;;;20.33;;
59424;SDS011;45231;44.826;20.312;2022-12-13T11:08:42;26.77;;;18.95;;
59424;SDS011;45231;44.826;20.312;2022-12-13T11:11:08;25.90;;;17.27;;
59424;SDS011;45231;44.826;20.312;2022-12-13T11:13:36;24.05;;;15.52;;
59424;SDS011;45231;44.826;20.312;2022-12-13T11:16:19;27.90;;;18.05;;
59424;SDS011;45231;44.826;20.312;2022-12-13T11:18:49;24.58;;;15.95;;
59424;SDS011;45231;44.826;20.312;2022-12-13T11:21:21;26.80;;;16.80;;
59424;SDS011;45231;44.826;20.312;2022-12-13T11:23:49;21.83;;;14.05;;
59424;SDS011;45231;44.826;20.312;2022-12-13T11:26:18;21.63;;;12.90;;
59424;SDS011;45231;44.826;20.312;2022-12-13T11:34:03;21.10;;;13.57;;
59424;SDS011;45231;44.826;20.312;2022-12-13T11:36:43;22.33;;;14.10;;
59424;SDS011;45231;44.826;20.312;2022-12-13T11:41:52;21.95;;;15.05;;
59424;SDS011;45231;44.826;20.312;2022-12-13T11:44:28;22.60;;;14.65;;
59424;SDS011;45231;44.826;20.312;2022-12-13T11:46:59;20.48;;;13.88;;
59424;SDS011;45231;44.826;20.312;2022-12-13T11:57:16;19.80;;;13.07;;
59424;SDS011;45231;44.826;20.312;2022-12-13T11:59:46;20.58;;;14.23;;
59424;SDS011;45231;44.826;20.312;2022-12-13T12:04:52;22.65;;;13.95;;
59424;SDS011;45231;44.826;20.312;2022-12-13T12:07:31;20.52;;;12.80;;
59424;SDS011;45231;44.826;20.312;2022-12-13T12:12:41;19.77;;;13.35;;
59424;SDS011;45231;44.826;20.312;2022-12-13T12:17:38;19.77;;;12.88;;
59424;SDS011;45231;44.826;20.312;2022-12-13T12:20:17;28.80;;;19.45;;
59424;SDS011;45231;44.826;20.312;2022-12-13T12:22:57;23.75;;;14.55;;
59424;SDS011;45231;44.826;20.312;2022-12-13T12:35:55;18.58;;;11.32;;
59424;SDS011;45231;44.826;20.312;2022-12-13T12:41:15;17.63;;;11.15;;
59424;SDS011;45231;44.826;20.312;2022-12-13T12:43:53;17.52;;;11.40;;
59424;SDS011;45231;44.826;20.312;2022-12-13T12:51:47;24.35;;;14.40;;
59424;SDS011;45231;44.826;20.312;2022-12-13T12:54:30;21.88;;;14.00;;
59424;SDS011;45231;44.826;20.312;2022-12-13T13:01:59;25.80;;;14.20;;
59424;SDS011;45231;44.826;20.312;2022-12-13T13:04:30;28.50;;;16.30;;
59424;SDS011;45231;44.826;20.312;2022-12-13T13:07:14;25.52;;;15.32;;
59424;SDS011;45231;44.826;20.312;2022-12-13T13:09:41;22.52;;;13.82;;
59424;SDS011;45231;44.826;20.312;2022-12-13T13:12:07;29.30;;;19.50;;
59424;SDS011;45231;44.826;20.312;2022-12-13T13:14:35;34.10;;;21.45;;
59424;SDS011;45231;44.826;20.312;2022-12-13T13:19:47;28.17;;;17.70;;
59424;SDS011;45231;44.826;20.312;2022-12-13T13:22:27;61.20;;;36.97;;
59424;SDS011;45231;44.826;20.312;2022-12-13T13:24:58;49.80;;;33.05;;
59424;SDS011;45231;44.826;20.312;2022-12-13T13:27:28;34.83;;;19.50;;
59424;SDS011;45231;44.826;20.312;2022-12-13T13:30:15;34.65;;;19.60;;
59424;SDS011;45231;44.826;20.312;2022-12-13T13:32:42;38.97;;;21.65;;
59424;SDS011;45231;44.826;20.312;2022-12-13T13:38:03;33.70;;;18.23;;
59424;SDS011;45231;44.826;20.312;2022-12-13T13:40:36;37.08;;;20.90;;
59424;SDS011;45231;44.826;20.312;2022-12-13T13:43:11;32.88;;;18.55;;
59424;SDS011;45231;44.826;20.312;2022-12-13T13:45:57;30.95;;;17.80;;
59424;SDS011;45231;44.826;20.312;2022-12-13T13:51:09;25.88;;;15.35;;
59424;SDS011;45231;44.826;20.312;2022-12-13T14:09:17;33.80;;;19.40;;
59424;SDS011;45231;44.826;20.312;2022-12-13T14:14:37;33.00;;;16.73;;
59424;SDS011;45231;44.826;20.312;2022-12-13T14:19:58;31.10;;;17.05;;
59424;SDS011;45231;44.826;20.312;2022-12-13T14:28:03;31.10;;;18.07;;
59424;SDS011;45231;44.826;20.312;2022-12-13T14:30:33;32.28;;;18.35;;
59424;SDS011;45231;44.826;20.312;2022-12-13T14:33:03;36.60;;;20.67;;
59424;SDS011;45231;44.826;20.312;2022-12-13T14:35:31;35.07;;;19.33;;
59424;SDS011;45231;44.826;20.312;2022-12-13T14:38:01;32.92;;;19.48;;
59424;SDS011;45231;44.826;20.312;2022-12-13T14:42:54;31.17;;;16.70;;
59424;SDS011;45231;44.826;20.312;2022-12-13T14:45:28;29.75;;;19.83;;
59424;SDS011;45231;44.826;20.312;2022-12-13T14:48:10;27.77;;;17.35;;
59424;SDS011;45231;44.826;20.312;2022-12-13T14:50:37;41.60;;;22.13;;
59424;SDS011;45231;44.826;20.312;2022-12-13T14:53:06;48.95;;;28.23;;
59424;SDS011;45231;44.826;20.312;2022-12-13T14:55:33;48.70;;;26.10;;
59424;SDS011;45231;44.826;20.312;2022-12-13T14:58:13;43.70;;;25.00;;
59424;SDS011;45231;44.826;20.312;2022-12-13T15:00:41;42.85;;;22.73;;
59424;SDS011;45231;44.826;20.312;2022-12-13T15:03:19;40.78;;;23.27;;
59424;SDS011;45231;44.826;20.312;2022-12-13T15:05:46;43.13;;;22.15;;
59424;SDS011;45231;44.826;20.312;2022-12-13T15:08:15;35.13;;;19.98;;
59424;SDS011;45231;44.826;20.312;2022-12-13T15:10:45;32.53;;;20.90;;
59424;SDS011;45231;44.826;20.312;2022-12-13T15:15:52;34.00;;;21.85;;
59424;SDS011;45231;44.826;20.312;2022-12-13T15:18:20;32.63;;;19.80;;
59424;SDS011;45231;44.826;20.312;2022-12-13T15:20:48;36.80;;;22.98;;
59424;SDS011;45231;44.826;20.312;2022-12-13T15:23:21;39.38;;;24.50;;
59424;SDS011;45231;44.826;20.312;2022-12-13T15:25:59;56.80;;;32.95;;
59424;SDS011;45231;44.826;20.312;2022-12-13T15:28:30;56.42;;;30.45;;
59424;SDS011;45231;44.826;20.312;2022-12-13T15:30:57;45.05;;;24.30;;
59424;SDS011;45231;44.826;20.312;2022-12-13T15:36:35;62.28;;;31.45;;
59424;SDS011;45231;44.826;20.312;2022-12-13T15:41:21;70.53;;;34.75;;
59424;SDS011;45231;44.826;20.312;2022-12-13T15:43:51;58.85;;;31.23;;
59424;SDS011;45231;44.826;20.312;2022-12-13T15:46:24;47.53;;;27.02;;
59424;SDS011;45231;44.826;20.312;2022-12-13T15:48:51;47.80;;;28.38;;
59424;SDS011;45231;44.826;20.312;2022-12-13T15:51:18;46.78;;;26.48;;
59424;SDS011;45231;44.826;20.312;2022-12-13T15:56:39;47.28;;;28.13;;
59424;SDS011;45231;44.826;20.312;2022-12-13T15:59:20;47.78;;;28.35;;
59424;SDS011;45231;44.826;20.312;2022-12-13T16:01:48;45.72;;;25.25;;
59424;SDS011;45231;44.826;20.312;2022-12-13T16:04:19;47.88;;;25.67;;
59424;SDS011;45231;44.826;20.312;2022-12-13T16:06:56;44.72;;;26.73;;
59424;SDS011;45231;44.826;20.312;2022-12-13T16:09:23;40.80;;;26.42;;
59424;SDS011;45231;44.826;20.312;2022-12-13T16:11:51;41.45;;;25.30;;
59424;SDS011;45231;44.826;20.312;2022-12-13T16:19:42;46.83;;;29.60;;
59424;SDS011;45231;44.826;20.312;2022-12-13T16:22:20;71.70;;;36.67;;
59424;SDS011;45231;44.826;20.312;2022-12-13T16:24:48;50.00;;;29.67;;
59424;SDS011;45231;44.826;20.312;2022-12-13T16:27:14;47.72;;;30.20;;
59424;SDS011;45231;44.826;20.312;2022-12-13T16:29:41;46.35;;;27.80;;
59424;SDS011;45231;44.826;20.312;2022-12-13T16:32:07;58.87;;;33.90;;
59424;SDS011;45231;44.826;20.312;2022-12-13T16:34:38;57.42;;;35.40;;
59424;SDS011;45231;44.826;20.312;2022-12-13T16:37:04;52.65;;;33.05;;
59424;SDS011;45231;44.826;20.312;2022-12-13T16:39:30;50.42;;;31.92;;
59424;SDS011;45231;44.826;20.312;2022-12-13T16:41:57;49.67;;;31.05;;
59424;SDS011;45231;44.826;20.312;2022-12-13T16:44:33;53.33;;;31.60;;
59424;SDS011;45231;44.826;20.312;2022-12-13T16:47:03;45.40;;;24.35;;